Terminal Aerodrome Forecast
Issued by NWS Cleveland, OH

Home | Current Version | Previous Version | Text Only | Print | Product List | Glossary On
Versions: 1 2 3 4 5 6 7 8 9 10 11 12 13 14 15 16 17 18 19 20 21
399
FTUS41 KCLE 170525
TAFCAK
TAF
KCAK 170525Z 1706/1806 14006KT 5SM -RA BR SCT008 OVC012
      TEMPO 1707/1711 2SM -RA BR OVC008
     FM171100 17012KT 4SM -RA BR SCT015 OVC025
     FM172000 25012G20KT P6SM OVC015=

USA.gov is the U.S. government's official web portal to all federal, state and local government web resources and services.